sensor_id;sensor_type;location;lat;lon;timestamp;temperature;humidity
67598;DHT22;62026;39.230;9.122;2023-04-16T00:01:18;15.20;53.10
67598;DHT22;62026;39.230;9.122;2023-04-16T00:03:44;15.20;53.30
67598;DHT22;62026;39.230;9.122;2023-04-16T00:06:10;15.20;53.20
67598;DHT22;62026;39.230;9.122;2023-04-16T00:08:38;15.20;53.40
67598;DHT22;62026;39.230;9.122;2023-04-16T00:11:06;15.20;53.40
67598;DHT22;62026;39.230;9.122;2023-04-16T00:13:32;15.20;53.50
67598;DHT22;62026;39.230;9.122;2023-04-16T00:15:58;15.20;53.50
67598;DHT22;62026;39.230;9.122;2023-04-16T00:18:24;15.20;53.70
67598;DHT22;62026;39.230;9.122;2023-04-16T00:20:51;15.10;53.70
67598;DHT22;62026;39.230;9.122;2023-04-16T00:23:18;15.10;54.00
67598;DHT22;62026;39.230;9.122;2023-04-16T00:25:44;15.10;54.20
67598;DHT22;62026;39.230;9.122;2023-04-16T00:28:11;15.10;54.60
67598;DHT22;62026;39.230;9.122;2023-04-16T00:30:37;15.10;54.90
67598;DHT22;62026;39.230;9.122;2023-04-16T00:33:03;15.00;55.40
67598;DHT22;62026;39.230;9.122;2023-04-16T00:35:30;15.00;55.70
67598;DHT22;62026;39.230;9.122;2023-04-16T00:37:56;15.00;56.00
67598;DHT22;62026;39.230;9.122;2023-04-16T00:40:26;15.00;56.10
67598;DHT22;62026;39.230;9.122;2023-04-16T00:42:53;15.00;56.20
67598;DHT22;62026;39.230;9.122;2023-04-16T00:45:23;15.00;56.50
67598;DHT22;62026;39.230;9.122;2023-04-16T00:47:49;14.90;56.50
67598;DHT22;62026;39.230;9.122;2023-04-16T00:50:17;14.90;56.70
67598;DHT22;62026;39.230;9.122;2023-04-16T00:52:48;14.90;57.10
67598;DHT22;62026;39.230;9.122;2023-04-16T00:55:19;14.90;57.10
67598;DHT22;62026;39.230;9.122;2023-04-16T00:57:46;14.90;57.40
67598;DHT22;62026;39.230;9.122;2023-04-16T01:00:12;14.90;57.90
67598;DHT22;62026;39.230;9.122;2023-04-16T01:02:38;14.90;58.50
67598;DHT22;62026;39.230;9.122;2023-04-16T01:05:05;14.90;58.50
67598;DHT22;62026;39.230;9.122;2023-04-16T01:07:31;14.90;58.90
67598;DHT22;62026;39.230;9.122;2023-04-16T01:09:58;14.90;59.20
67598;DHT22;62026;39.230;9.122;2023-04-16T01:12:24;14.90;59.50
67598;DHT22;62026;39.230;9.122;2023-04-16T01:14:51;14.90;59.40
67598;DHT22;62026;39.230;9.122;2023-04-16T01:17:17;14.90;59.40
67598;DHT22;62026;39.230;9.122;2023-04-16T01:19:43;14.90;59.30
67598;DHT22;62026;39.230;9.122;2023-04-16T01:22:09;14.90;58.90
67598;DHT22;62026;39.230;9.122;2023-04-16T01:24:36;15.00;58.70
67598;DHT22;62026;39.230;9.122;2023-04-16T01:27:02;15.00;58.80
67598;DHT22;62026;39.230;9.122;2023-04-16T01:29:28;15.00;59.00
67598;DHT22;62026;39.230;9.122;2023-04-16T01:31:56;15.00;59.30
67598;DHT22;62026;39.230;9.122;2023-04-16T01:34:30;15.00;59.40
67598;DHT22;62026;39.230;9.122;2023-04-16T01:36:58;14.90;59.90
67598;DHT22;62026;39.230;9.122;2023-04-16T01:39:27;14.90;60.00
67598;DHT22;62026;39.230;9.122;2023-04-16T01:41:55;14.90;60.30
67598;DHT22;62026;39.230;9.122;2023-04-16T01:44:21;14.90;60.40
67598;DHT22;62026;39.230;9.122;2023-04-16T01:46:48;14.90;60.80
67598;DHT22;62026;39.230;9.122;2023-04-16T01:49:14;14.90;61.20
67598;DHT22;62026;39.230;9.122;2023-04-16T01:51:40;14.90;61.90
67598;DHT22;62026;39.230;9.122;2023-04-16T01:54:08;14.80;62.40
67598;DHT22;62026;39.230;9.122;2023-04-16T01:56:34;14.80;62.70
67598;DHT22;62026;39.230;9.122;2023-04-16T01:59:00;14.70;63.10
67598;DHT22;62026;39.230;9.122;2023-04-16T02:01:32;14.70;63.40
67598;DHT22;62026;39.230;9.122;2023-04-16T02:03:59;14.70;63.30
67598;DHT22;62026;39.230;9.122;2023-04-16T02:06:25;14.60;63.60
67598;DHT22;62026;39.230;9.122;2023-04-16T02:08:52;14.60;64.00
67598;DHT22;62026;39.230;9.122;2023-04-16T02:11:18;14.60;63.80
67598;DHT22;62026;39.230;9.122;2023-04-16T02:13:45;14.60;64.10
67598;DHT22;62026;39.230;9.122;2023-04-16T02:16:11;14.50;64.40
67598;DHT22;62026;39.230;9.122;2023-04-16T02:18:48;14.50;64.60
67598;DHT22;62026;39.230;9.122;2023-04-16T02:21:17;14.50;64.80
67598;DHT22;62026;39.230;9.122;2023-04-16T02:23:43;14.40;64.90
67598;DHT22;62026;39.230;9.122;2023-04-16T02:26:12;14.40;65.20
67598;DHT22;62026;39.230;9.122;2023-04-16T02:28:38;14.40;65.20
67598;DHT22;62026;39.230;9.122;2023-04-16T02:31:06;14.40;65.30
67598;DHT22;62026;39.230;9.122;2023-04-16T02:33:42;14.40;65.20
67598;DHT22;62026;39.230;9.122;2023-04-16T02:36:11;14.40;65.30
67598;DHT22;62026;39.230;9.122;2023-04-16T02:38:37;14.40;65.40
67598;DHT22;62026;39.230;9.122;2023-04-16T02:41:03;14.40;65.40
67598;DHT22;62026;39.230;9.122;2023-04-16T02:43:30;14.40;65.70
67598;DHT22;62026;39.230;9.122;2023-04-16T02:45:56;14.40;65.80
67598;DHT22;62026;39.230;9.122;2023-04-16T02:48:24;14.30;65.80
67598;DHT22;62026;39.230;9.122;2023-04-16T02:50:50;14.30;65.90
67598;DHT22;62026;39.230;9.122;2023-04-16T02:53:16;14.30;66.00
67598;DHT22;62026;39.230;9.122;2023-04-16T02:55:51;14.30;65.90
67598;DHT22;62026;39.230;9.122;2023-04-16T02:58:22;14.30;66.10
67598;DHT22;62026;39.230;9.122;2023-04-16T03:00:49;14.30;66.30
67598;DHT22;62026;39.230;9.122;2023-04-16T03:03:16;14.20;66.30
67598;DHT22;62026;39.230;9.122;2023-04-16T03:05:43;14.20;66.20
67598;DHT22;62026;39.230;9.122;2023-04-16T03:08:09;14.30;66.10
67598;DHT22;62026;39.230;9.122;2023-04-16T03:10:36;14.30;66.10
67598;DHT22;62026;39.230;9.122;2023-04-16T03:13:02;14.30;66.10
67598;DHT22;62026;39.230;9.122;2023-04-16T03:15:29;14.20;66.30
67598;DHT22;62026;39.230;9.122;2023-04-16T03:17:56;14.20;66.40
67598;DHT22;62026;39.230;9.122;2023-04-16T03:20:22;14.20;66.40
67598;DHT22;62026;39.230;9.122;2023-04-16T03:22:49;14.20;66.50
67598;DHT22;62026;39.230;9.122;2023-04-16T03:25:17;14.10;66.50
67598;DHT22;62026;39.230;9.122;2023-04-16T03:27:43;14.10;66.60
67598;DHT22;62026;39.230;9.122;2023-04-16T03:30:11;14.20;66.40
67598;DHT22;62026;39.230;9.122;2023-04-16T03:32:38;14.10;66.50
67598;DHT22;62026;39.230;9.122;2023-04-16T03:35:06;14.10;66.40
67598;DHT22;62026;39.230;9.122;2023-04-16T03:37:33;14.10;66.40
67598;DHT22;62026;39.230;9.122;2023-04-16T03:39:59;14.10;66.30
67598;DHT22;62026;39.230;9.122;2023-04-16T03:42:26;14.10;66.30
67598;DHT22;62026;39.230;9.122;2023-04-16T03:44:52;14.10;66.20
67598;DHT22;62026;39.230;9.122;2023-04-16T03:47:20;14.00;66.10
67598;DHT22;62026;39.230;9.122;2023-04-16T03:49:48;14.00;66.00
67598;DHT22;62026;39.230;9.122;2023-04-16T03:52:14;14.00;66.00
67598;DHT22;62026;39.230;9.122;2023-04-16T03:54:40;14.00;66.00
67598;DHT22;62026;39.230;9.122;2023-04-16T03:57:18;14.00;66.00
67598;DHT22;62026;39.230;9.122;2023-04-16T03:59:44;14.00;65.90
67598;DHT22;62026;39.230;9.122;2023-04-16T04:02:10;14.00;65.90
67598;DHT22;62026;39.230;9.122;2023-04-16T04:04:36;14.00;66.00
67598;DHT22;62026;39.230;9.122;2023-04-16T04:07:02;14.00;66.20
67598;DHT22;62026;39.230;9.122;2023-04-16T04:09:28;14.00;66.20
67598;DHT22;62026;39.230;9.122;2023-04-16T04:11:54;14.00;66.30
67598;DHT22;62026;39.230;9.122;2023-04-16T04:14:20;13.90;66.50
67598;DHT22;62026;39.230;9.122;2023-04-16T04:16:46;13.90;66.60
67598;DHT22;62026;39.230;9.122;2023-04-16T04:19:13;13.90;66.80
67598;DHT22;62026;39.230;9.122;2023-04-16T04:21:39;13.80;67.10
67598;DHT22;62026;39.230;9.122;2023-04-16T04:24:05;13.80;67.20
67598;DHT22;62026;39.230;9.122;2023-04-16T04:26:32;13.80;67.30
67598;DHT22;62026;39.230;9.122;2023-04-16T04:28:58;13.80;67.40
67598;DHT22;62026;39.230;9.122;2023-04-16T04:31:24;13.80;67.30
67598;DHT22;62026;39.230;9.122;2023-04-16T04:33:50;13.80;67.30
67598;DHT22;62026;39.230;9.122;2023-04-16T04:36:17;13.80;67.40
67598;DHT22;62026;39.230;9.122;2023-04-16T04:38:43;13.70;67.30
67598;DHT22;62026;39.230;9.122;2023-04-16T04:41:09;13.80;67.30
67598;DHT22;62026;39.230;9.122;2023-04-16T04:43:36;13.80;67.20
67598;DHT22;62026;39.230;9.122;2023-04-16T04:46:02;13.70;67.30
67598;DHT22;62026;39.230;9.122;2023-04-16T04:48:30;13.70;67.20
67598;DHT22;62026;39.230;9.122;2023-04-16T04:50:56;13.70;67.20
67598;DHT22;62026;39.230;9.122;2023-04-16T04:53:22;13.70;67.10
67598;DHT22;62026;39.230;9.122;2023-04-16T04:55:48;13.70;67.10
67598;DHT22;62026;39.230;9.122;2023-04-16T04:58:14;13.70;67.30
67598;DHT22;62026;39.230;9.122;2023-04-16T05:00:42;13.70;67.20
67598;DHT22;62026;39.230;9.122;2023-04-16T05:03:10;13.70;67.30
67598;DHT22;62026;39.230;9.122;2023-04-16T05:05:38;13.70;67.40
67598;DHT22;62026;39.230;9.122;2023-04-16T05:08:05;13.60;67.60
67598;DHT22;62026;39.230;9.122;2023-04-16T05:10:31;13.60;67.70
67598;DHT22;62026;39.230;9.122;2023-04-16T05:12:57;13.60;67.80
67598;DHT22;62026;39.230;9.122;2023-04-16T05:15:23;13.60;67.90
67598;DHT22;62026;39.230;9.122;2023-04-16T05:17:49;13.70;67.80
67598;DHT22;62026;39.230;9.122;2023-04-16T05:20:15;13.70;67.80
67598;DHT22;62026;39.230;9.122;2023-04-16T05:22:41;13.60;67.80
67598;DHT22;62026;39.230;9.122;2023-04-16T05:25:07;13.70;67.80
67598;DHT22;62026;39.230;9.122;2023-04-16T05:27:34;13.70;67.80
67598;DHT22;62026;39.230;9.122;2023-04-16T05:30:01;13.70;67.80
67598;DHT22;62026;39.230;9.122;2023-04-16T05:32:27;13.70;67.60
67598;DHT22;62026;39.230;9.122;2023-04-16T05:34:53;13.70;67.70
67598;DHT22;62026;39.230;9.122;2023-04-16T05:37:19;13.70;67.60
67598;DHT22;62026;39.230;9.122;2023-04-16T05:39:45;13.80;67.60
67598;DHT22;62026;39.230;9.122;2023-04-16T05:42:11;13.80;67.40
67598;DHT22;62026;39.230;9.122;2023-04-16T05:44:38;13.90;67.40
67598;DHT22;62026;39.230;9.122;2023-04-16T05:47:05;13.90;67.30
67598;DHT22;62026;39.230;9.122;2023-04-16T05:49:34;14.00;67.10
67598;DHT22;62026;39.230;9.122;2023-04-16T05:52:02;14.00;67.00
67598;DHT22;62026;39.230;9.122;2023-04-16T05:54:29;14.10;66.80
67598;DHT22;62026;39.230;9.122;2023-04-16T05:56:55;14.10;66.70
67598;DHT22;62026;39.230;9.122;2023-04-16T05:59:22;14.20;66.60
67598;DHT22;62026;39.230;9.122;2023-04-16T06:01:48;14.30;66.40
67598;DHT22;62026;39.230;9.122;2023-04-16T06:04:14;14.40;66.40
67598;DHT22;62026;39.230;9.122;2023-04-16T06:06:40;14.50;66.10
67598;DHT22;62026;39.230;9.122;2023-04-16T06:09:06;14.60;65.80
67598;DHT22;62026;39.230;9.122;2023-04-16T06:11:32;14.70;65.50
67598;DHT22;62026;39.230;9.122;2023-04-16T06:13:58;14.70;65.30
67598;DHT22;62026;39.230;9.122;2023-04-16T06:16:24;14.80;65.00
67598;DHT22;62026;39.230;9.122;2023-04-16T06:18:50;14.90;64.70
67598;DHT22;62026;39.230;9.122;2023-04-16T06:21:16;14.90;64.60
67598;DHT22;62026;39.230;9.122;2023-04-16T06:23:42;15.00;64.30
67598;DHT22;62026;39.230;9.122;2023-04-16T06:26:09;15.10;64.10
67598;DHT22;62026;39.230;9.122;2023-04-16T06:28:36;15.20;64.00
67598;DHT22;62026;39.230;9.122;2023-04-16T06:31:02;15.30;63.80
67598;DHT22;62026;39.230;9.122;2023-04-16T06:33:28;15.30;63.70
67598;DHT22;62026;39.230;9.122;2023-04-16T06:35:54;15.40;63.60
67598;DHT22;62026;39.230;9.122;2023-04-16T06:38:21;15.50;63.40
67598;DHT22;62026;39.230;9.122;2023-04-16T06:40:49;15.60;62.90
67598;DHT22;62026;39.230;9.122;2023-04-16T06:43:16;15.70;63.00
67598;DHT22;62026;39.230;9.122;2023-04-16T06:45:43;15.80;62.70
67598;DHT22;62026;39.230;9.122;2023-04-16T06:48:09;15.90;62.30
67598;DHT22;62026;39.230;9.122;2023-04-16T06:50:35;16.00;62.10
67598;DHT22;62026;39.230;9.122;2023-04-16T06:53:02;16.10;61.90
67598;DHT22;62026;39.230;9.122;2023-04-16T06:55:28;16.20;61.60
67598;DHT22;62026;39.230;9.122;2023-04-16T06:57:54;16.40;61.10
67598;DHT22;62026;39.230;9.122;2023-04-16T07:00:20;16.40;60.70
67598;DHT22;62026;39.230;9.122;2023-04-16T07:02:46;16.50;60.50
67598;DHT22;62026;39.230;9.122;2023-04-16T07:05:12;16.60;60.20
67598;DHT22;62026;39.230;9.122;2023-04-16T07:07:38;16.80;60.00
67598;DHT22;62026;39.230;9.122;2023-04-16T07:10:04;16.80;59.60
67598;DHT22;62026;39.230;9.122;2023-04-16T07:12:31;16.90;59.50
67598;DHT22;62026;39.230;9.122;2023-04-16T07:14:57;17.00;58.90
67598;DHT22;62026;39.230;9.122;2023-04-16T07:17:23;17.10;58.80
67598;DHT22;62026;39.230;9.122;2023-04-16T07:19:50;17.20;58.30
67598;DHT22;62026;39.230;9.122;2023-04-16T07:22:17;17.30;58.10
67598;DHT22;62026;39.230;9.122;2023-04-16T07:24:43;17.40;57.60
67598;DHT22;62026;39.230;9.122;2023-04-16T07:27:09;17.50;57.50
67598;DHT22;62026;39.230;9.122;2023-04-16T07:29:36;17.60;57.20
67598;DHT22;62026;39.230;9.122;2023-04-16T07:32:02;17.70;57.00
67598;DHT22;62026;39.230;9.122;2023-04-16T07:34:27;17.80;56.30
67598;DHT22;62026;39.230;9.122;2023-04-16T07:36:53;17.90;56.10
67598;DHT22;62026;39.230;9.122;2023-04-16T07:39:20;18.00;55.60
67598;DHT22;62026;39.230;9.122;2023-04-16T07:41:46;18.00;55.40
67598;DHT22;62026;39.230;9.122;2023-04-16T07:44:12;18.20;55.40
67598;DHT22;62026;39.230;9.122;2023-04-16T07:46:38;18.20;54.80
67598;DHT22;62026;39.230;9.122;2023-04-16T07:49:04;18.30;54.80
67598;DHT22;62026;39.230;9.122;2023-04-16T07:51:30;18.40;54.50
67598;DHT22;62026;39.230;9.122;2023-04-16T07:53:56;18.40;54.30
67598;DHT22;62026;39.230;9.122;2023-04-16T07:56:22;18.50;54.20
67598;DHT22;62026;39.230;9.122;2023-04-16T07:58:48;18.60;53.50
67598;DHT22;62026;39.230;9.122;2023-04-16T08:01:14;18.70;53.30
67598;DHT22;62026;39.230;9.122;2023-04-16T08:03:41;18.70;53.00
67598;DHT22;62026;39.230;9.122;2023-04-16T08:06:07;18.70;53.10
67598;DHT22;62026;39.230;9.122;2023-04-16T08:08:33;18.70;53.30
67598;DHT22;62026;39.230;9.122;2023-04-16T08:10:59;18.80;53.00
67598;DHT22;62026;39.230;9.122;2023-04-16T08:13:25;18.90;53.00
67598;DHT22;62026;39.230;9.122;2023-04-16T08:15:51;19.00;52.60
67598;DHT22;62026;39.230;9.122;2023-04-16T08:18:18;19.00;52.70
67598;DHT22;62026;39.230;9.122;2023-04-16T08:20:44;19.10;52.60
67598;DHT22;62026;39.230;9.122;2023-04-16T08:23:10;19.20;52.40
67598;DHT22;62026;39.230;9.122;2023-04-16T08:25:36;19.40;52.40
67598;DHT22;62026;39.230;9.122;2023-04-16T08:28:02;19.60;52.20
67598;DHT22;62026;39.230;9.122;2023-04-16T08:30:28;19.70;51.80
67598;DHT22;62026;39.230;9.122;2023-04-16T08:32:54;19.70;51.40
67598;DHT22;62026;39.230;9.122;2023-04-16T08:35:20;19.70;51.60
67598;DHT22;62026;39.230;9.122;2023-04-16T08:37:46;19.70;51.70
67598;DHT22;62026;39.230;9.122;2023-04-16T08:40:12;19.70;51.60
67598;DHT22;62026;39.230;9.122;2023-04-16T08:42:45;19.50;51.70
67598;DHT22;62026;39.230;9.122;2023-04-16T08:45:17;19.80;50.70
67598;DHT22;62026;39.230;9.122;2023-04-16T08:47:48;20.00;49.30
67598;DHT22;62026;39.230;9.122;2023-04-16T08:50:23;20.10;49.80
67598;DHT22;62026;39.230;9.122;2023-04-16T08:52:52;20.10;50.50
67598;DHT22;62026;39.230;9.122;2023-04-16T08:55:28;20.20;50.50
67598;DHT22;62026;39.230;9.122;2023-04-16T08:58:04;20.20;50.40
67598;DHT22;62026;39.230;9.122;2023-04-16T09:00:43;19.80;50.70
67598;DHT22;62026;39.230;9.122;2023-04-16T09:03:11;19.70;50.90
67598;DHT22;62026;39.230;9.122;2023-04-16T09:05:38;19.50;51.10
67598;DHT22;62026;39.230;9.122;2023-04-16T09:08:05;19.50;51.60
67598;DHT22;62026;39.230;9.122;2023-04-16T09:10:31;19.90;51.00
67598;DHT22;62026;39.230;9.122;2023-04-16T09:12:57;20.00;50.50
67598;DHT22;62026;39.230;9.122;2023-04-16T09:15:24;20.10;50.60
67598;DHT22;62026;39.230;9.122;2023-04-16T09:17:54;20.10;50.30
67598;DHT22;62026;39.230;9.122;2023-04-16T09:20:22;20.00;50.30
67598;DHT22;62026;39.230;9.122;2023-04-16T09:22:48;19.90;50.10
67598;DHT22;62026;39.230;9.122;2023-04-16T09:25:14;20.00;49.70
67598;DHT22;62026;39.230;9.122;2023-04-16T09:27:41;20.20;49.00
67598;DHT22;62026;39.230;9.122;2023-04-16T09:32:46;20.00;48.70
67598;DHT22;62026;39.230;9.122;2023-04-16T09:35:13;20.10;48.60
67598;DHT22;62026;39.230;9.122;2023-04-16T09:37:40;20.10;48.50
67598;DHT22;62026;39.230;9.122;2023-04-16T09:40:06;20.20;48.30
67598;DHT22;62026;39.230;9.122;2023-04-16T09:42:35;20.30;48.50
67598;DHT22;62026;39.230;9.122;2023-04-16T09:45:02;20.10;49.00
67598;DHT22;62026;39.230;9.122;2023-04-16T09:47:44;19.90;49.10
67598;DHT22;62026;39.230;9.122;2023-04-16T09:50:15;19.80;48.90
67598;DHT22;62026;39.230;9.122;2023-04-16T09:52:48;19.80;49.00
67598;DHT22;62026;39.230;9.122;2023-04-16T09:55:26;19.90;49.30
67598;DHT22;62026;39.230;9.122;2023-04-16T09:57:59;19.90;49.10
67598;DHT22;62026;39.230;9.122;2023-04-16T10:00:28;20.10;49.70
67598;DHT22;62026;39.230;9.122;2023-04-16T10:03:05;20.30;48.90
67598;DHT22;62026;39.230;9.122;2023-04-16T10:05:31;20.40;48.90
67598;DHT22;62026;39.230;9.122;2023-04-16T10:08:00;20.50;48.20
67598;DHT22;62026;39.230;9.122;2023-04-16T10:10:27;20.50;47.70
67598;DHT22;62026;39.230;9.122;2023-04-16T10:12:54;20.60;47.30
67598;DHT22;62026;39.230;9.122;2023-04-16T10:15:21;20.60;48.00
67598;DHT22;62026;39.230;9.122;2023-04-16T10:17:47;20.60;47.90
67598;DHT22;62026;39.230;9.122;2023-04-16T10:20:15;20.60;47.80
67598;DHT22;62026;39.230;9.122;2023-04-16T10:22:43;20.50;47.60
67598;DHT22;62026;39.230;9.122;2023-04-16T10:25:10;20.60;46.80
67598;DHT22;62026;39.230;9.122;2023-04-16T10:27:37;20.70;46.00
67598;DHT22;62026;39.230;9.122;2023-04-16T10:30:06;20.60;45.20
67598;DHT22;62026;39.230;9.122;2023-04-16T10:32:33;20.60;44.30
67598;DHT22;62026;39.230;9.122;2023-04-16T10:35:00;20.50;44.30
67598;DHT22;62026;39.230;9.122;2023-04-16T10:37:30;20.50;44.20
67598;DHT22;62026;39.230;9.122;2023-04-16T10:39:59;20.50;44.60
67598;DHT22;62026;39.230;9.122;2023-04-16T10:42:25;20.40;44.20
67598;DHT22;62026;39.230;9.122;2023-04-16T10:44:52;20.30;43.70
67598;DHT22;62026;39.230;9.122;2023-04-16T10:47:17;20.30;44.30
67598;DHT22;62026;39.230;9.122;2023-04-16T10:49:46;20.30;44.30
67598;DHT22;62026;39.230;9.122;2023-04-16T10:52:14;20.20;44.70
67598;DHT22;62026;39.230;9.122;2023-04-16T10:54:45;20.20;46.00
67598;DHT22;62026;39.230;9.122;2023-04-16T10:57:16;20.10;48.20
67598;DHT22;62026;39.230;9.122;2023-04-16T10:59:44;20.00;49.20
67598;DHT22;62026;39.230;9.122;2023-04-16T11:02:13;19.90;49.50
67598;DHT22;62026;39.230;9.122;2023-04-16T11:04:45;20.00;49.40
67598;DHT22;62026;39.230;9.122;2023-04-16T11:10:14;20.10;49.40
67598;DHT22;62026;39.230;9.122;2023-04-16T11:12:45;20.10;48.80
67598;DHT22;62026;39.230;9.122;2023-04-16T11:15:16;20.10;48.90
67598;DHT22;62026;39.230;9.122;2023-04-16T11:17:45;20.10;49.00
67598;DHT22;62026;39.230;9.122;2023-04-16T11:20:24;20.10;49.20
67598;DHT22;62026;39.230;9.122;2023-04-16T11:22:53;20.10;47.10
67598;DHT22;62026;39.230;9.122;2023-04-16T11:25:25;20.10;46.20
67598;DHT22;62026;39.230;9.122;2023-04-16T11:27:54;20.00;47.20
67598;DHT22;62026;39.230;9.122;2023-04-16T11:30:33;20.10;49.30
67598;DHT22;62026;39.230;9.122;2023-04-16T11:33:10;20.00;49.50
67598;DHT22;62026;39.230;9.122;2023-04-16T11:35:37;20.00;48.90
67598;DHT22;62026;39.230;9.122;2023-04-16T11:38:04;20.00;48.60
67598;DHT22;62026;39.230;9.122;2023-04-16T11:40:32;19.90;46.60
67598;DHT22;62026;39.230;9.122;2023-04-16T11:43:15;20.00;47.20
67598;DHT22;62026;39.230;9.122;2023-04-16T11:46:02;20.00;46.30
67598;DHT22;62026;39.230;9.122;2023-04-16T11:51:15;20.10;45.90
67598;DHT22;62026;39.230;9.122;2023-04-16T11:53:48;20.10;47.10
67598;DHT22;62026;39.230;9.122;2023-04-16T11:56:24;20.10;47.60
67598;DHT22;62026;39.230;9.122;2023-04-16T12:01:36;20.10;47.20
67598;DHT22;62026;39.230;9.122;2023-04-16T12:04:03;20.10;44.80
67598;DHT22;62026;39.230;9.122;2023-04-16T12:06:29;20.10;44.30
67598;DHT22;62026;39.230;9.122;2023-04-16T12:08:57;20.10;46.00
67598;DHT22;62026;39.230;9.122;2023-04-16T12:11:39;20.10;47.50
67598;DHT22;62026;39.230;9.122;2023-04-16T12:14:09;20.00;49.10
67598;DHT22;62026;39.230;9.122;2023-04-16T12:16:37;20.00;49.80
67598;DHT22;62026;39.230;9.122;2023-04-16T12:19:04;20.00;50.00
67598;DHT22;62026;39.230;9.122;2023-04-16T12:21:44;19.90;49.20
67598;DHT22;62026;39.230;9.122;2023-04-16T12:24:13;19.80;49.10
67598;DHT22;62026;39.230;9.122;2023-04-16T12:26:42;19.90;48.30
67598;DHT22;62026;39.230;9.122;2023-04-16T12:29:21;19.80;47.70
67598;DHT22;62026;39.230;9.122;2023-04-16T12:31:50;19.90;47.50
67598;DHT22;62026;39.230;9.122;2023-04-16T12:34:18;19.90;47.40
67598;DHT22;62026;39.230;9.122;2023-04-16T12:36:46;20.00;46.70
67598;DHT22;62026;39.230;9.122;2023-04-16T12:39:14;20.00;47.00
67598;DHT22;62026;39.230;9.122;2023-04-16T12:41:42;20.00;47.60
67598;DHT22;62026;39.230;9.122;2023-04-16T12:44:10;20.00;47.80
67598;DHT22;62026;39.230;9.122;2023-04-16T12:46:38;20.00;47.50
67598;DHT22;62026;39.230;9.122;2023-04-16T12:49:09;20.00;47.80
67598;DHT22;62026;39.230;9.122;2023-04-16T12:51:36;20.00;48.00
67598;DHT22;62026;39.230;9.122;2023-04-16T12:54:04;19.90;47.90
67598;DHT22;62026;39.230;9.122;2023-04-16T12:56:34;19.90;47.80
67598;DHT22;62026;39.230;9.122;2023-04-16T12:59:01;19.90;48.30
67598;DHT22;62026;39.230;9.122;2023-04-16T13:01:27;19.90;48.50
67598;DHT22;62026;39.230;9.122;2023-04-16T13:03:53;20.00;48.90
67598;DHT22;62026;39.230;9.122;2023-04-16T13:06:20;19.90;49.50
67598;DHT22;62026;39.230;9.122;2023-04-16T13:08:46;19.90;49.60
67598;DHT22;62026;39.230;9.122;2023-04-16T13:11:12;19.90;49.30
67598;DHT22;62026;39.230;9.122;2023-04-16T13:13:38;19.90;49.00
67598;DHT22;62026;39.230;9.122;2023-04-16T13:16:04;19.90;49.10
67598;DHT22;62026;39.230;9.122;2023-04-16T13:18:33;19.90;48.50
67598;DHT22;62026;39.230;9.122;2023-04-16T13:21:01;19.90;48.40
67598;DHT22;62026;39.230;9.122;2023-04-16T13:23:27;19.90;47.70
67598;DHT22;62026;39.230;9.122;2023-04-16T13:25:53;19.90;47.90
67598;DHT22;62026;39.230;9.122;2023-04-16T13:28:20;19.90;47.90
67598;DHT22;62026;39.230;9.122;2023-04-16T13:30:46;19.90;47.40
67598;DHT22;62026;39.230;9.122;2023-04-16T13:33:12;20.00;48.50
67598;DHT22;62026;39.230;9.122;2023-04-16T13:35:38;20.00;48.80
67598;DHT22;62026;39.230;9.122;2023-04-16T13:38:04;20.00;48.60
67598;DHT22;62026;39.230;9.122;2023-04-16T13:40:30;20.00;46.40
67598;DHT22;62026;39.230;9.122;2023-04-16T13:42:56;20.00;46.70
67598;DHT22;62026;39.230;9.122;2023-04-16T13:45:22;20.00;47.00
67598;DHT22;62026;39.230;9.122;2023-04-16T13:47:48;20.00;46.40
67598;DHT22;62026;39.230;9.122;2023-04-16T13:50:15;20.00;46.70
67598;DHT22;62026;39.230;9.122;2023-04-16T13:52:41;20.00;47.20
67598;DHT22;62026;39.230;9.122;2023-04-16T13:55:07;20.00;47.40
67598;DHT22;62026;39.230;9.122;2023-04-16T13:57:34;20.00;48.60
67598;DHT22;62026;39.230;9.122;2023-04-16T14:00:00;20.00;48.90
67598;DHT22;62026;39.230;9.122;2023-04-16T14:02:27;20.10;49.20
67598;DHT22;62026;39.230;9.122;2023-04-16T14:04:53;20.10;49.30
67598;DHT22;62026;39.230;9.122;2023-04-16T14:07:19;20.10;49.10
67598;DHT22;62026;39.230;9.122;2023-04-16T14:09:47;20.10;48.60
67598;DHT22;62026;39.230;9.122;2023-04-16T14:12:13;20.10;47.60
67598;DHT22;62026;39.230;9.122;2023-04-16T14:14:39;20.10;47.80
67598;DHT22;62026;39.230;9.122;2023-04-16T14:17:06;20.10;47.20
67598;DHT22;62026;39.230;9.122;2023-04-16T14:19:32;20.10;47.60
67598;DHT22;62026;39.230;9.122;2023-04-16T14:21:58;20.10;48.00
67598;DHT22;62026;39.230;9.122;2023-04-16T14:24:24;20.10;48.70
67598;DHT22;62026;39.230;9.122;2023-04-16T14:26:50;20.10;48.80
67598;DHT22;62026;39.230;9.122;2023-04-16T14:29:16;20.10;48.80
67598;DHT22;62026;39.230;9.122;2023-04-16T14:31:42;20.10;47.70
67598;DHT22;62026;39.230;9.122;2023-04-16T14:34:08;20.10;47.00
67598;DHT22;62026;39.230;9.122;2023-04-16T14:36:35;20.00;46.70
67598;DHT22;62026;39.230;9.122;2023-04-16T14:39:01;20.00;47.30
67598;DHT22;62026;39.230;9.122;2023-04-16T14:41:27;20.00;48.00
67598;DHT22;62026;39.230;9.122;2023-04-16T14:43:53;20.00;46.90
67598;DHT22;62026;39.230;9.122;2023-04-16T14:46:19;20.00;47.60
67598;DHT22;62026;39.230;9.122;2023-04-16T14:48:45;20.00;48.00
67598;DHT22;62026;39.230;9.122;2023-04-16T14:51:11;20.10;47.80
67598;DHT22;62026;39.230;9.122;2023-04-16T14:53:37;20.10;47.30
67598;DHT22;62026;39.230;9.122;2023-04-16T14:56:04;20.10;46.70
67598;DHT22;62026;39.230;9.122;2023-04-16T14:58:30;20.10;47.00
67598;DHT22;62026;39.230;9.122;2023-04-16T15:00:57;20.20;47.70
67598;DHT22;62026;39.230;9.122;2023-04-16T15:03:23;20.10;46.20
67598;DHT22;62026;39.230;9.122;2023-04-16T15:05:50;20.10;46.80
67598;DHT22;62026;39.230;9.122;2023-04-16T15:08:23;20.10;46.90
67598;DHT22;62026;39.230;9.122;2023-04-16T15:10:50;20.10;47.30
67598;DHT22;62026;39.230;9.122;2023-04-16T15:13:16;20.20;47.40
67598;DHT22;62026;39.230;9.122;2023-04-16T15:15:42;20.20;47.70
67598;DHT22;62026;39.230;9.122;2023-04-16T15:18:09;20.10;47.40
67598;DHT22;62026;39.230;9.122;2023-04-16T15:20:35;20.00;48.00
67598;DHT22;62026;39.230;9.122;2023-04-16T15:23:01;20.00;48.30
67598;DHT22;62026;39.230;9.122;2023-04-16T15:25:27;20.00;48.00
67598;DHT22;62026;39.230;9.122;2023-04-16T15:27:53;19.90;47.80
67598;DHT22;62026;39.230;9.122;2023-04-16T15:30:19;20.00;47.90
67598;DHT22;62026;39.230;9.122;2023-04-16T15:32:45;19.90;47.40
67598;DHT22;62026;39.230;9.122;2023-04-16T15:35:12;20.00;47.40
67598;DHT22;62026;39.230;9.122;2023-04-16T15:37:39;19.90;47.60
67598;DHT22;62026;39.230;9.122;2023-04-16T15:40:05;19.90;47.90
67598;DHT22;62026;39.230;9.122;2023-04-16T15:42:33;19.80;47.10